Maui, HI

10:28 AM HST on February 01, 2015 (GMT -1000)
Kehalani | Change Station
CLOSE
Current Station
Personal Weather Station
Location: Wailuku, HI
Elevation: 358 ft
Nearby Weather Stations
Active Advisory: High Surf Advisory

Elev 358 ft 20.87 °N, 156.50 °W | Updated 2 minutes ago

Light Rain
Light Rain Mist
69.1 °F
Feels Like 69.1 °F
N
7.8
Wind Variable Wind from NW

Today
High -- | Low -- °F
--% Chance of Precip.
Yesterday
High -- | Low -- °F
Precip. -- in
7:02 AM 6:16 PM
Waxing Gibbous, 96% visible
Pressure 30.08 in
Visibility 2.5 miles
Clouds Mostly Cloudy 800 ft
Overcast 1500 ft
Dew Point 67 °F
Humidity 92%
Rainfall 0.77 in
Snow Depth Not available.
UV 1 out of 12
Pollen Not available.
Air Quality Not available.
Flu Activity Not available.
METAR PHOG 011954Z 36010KT 2 1/2SM -RA BR BKN008 OVC015 22/20 A3006 RMK AO2 RAE1859B24 SLP185 P0000 T02170200 $

More Conditions Fewer Conditions

Pressure 30.08 in
Visibility 2.5 miles
Clouds Mostly Cloudy 800 ft
Overcast 1500 ft
Dew Point 67 °F
Humidity 92%
Rainfall 0.77 in
Snow Depth Not available.
UV 1 out of 12
Pollen Not available.
Air Quality Not available.
Flu Activity Not available.
METAR PHOG 011954Z 36010KT 2 1/2SM -RA BR BKN008 OVC015 22/20 A3006 RMK AO2 RAE1859B24 SLP185 P0000 T02170200 $

More Conditions Fewer Conditions

10-Day Weather Forecast

Almanac

Astronomy

Feb. 01, 2015 Rise Set
Actual Time
Civil Twilight
Nautical Twilight
Astronomical Twilight
Moon
Length of Visible Light
Length of Day
Tomorrow will be .
, % of the Moon is Illuminated

Today's Extremes

State Highs State Lows

Community

WunderPhotos

Upload Photos

1,792,497 photos uploaded!

WunderBlogs® & News

Nearby

Air Quality

  Air Quality AQ Index Pollutant
Not available.

Snow Depth

Station Depth Elevation

Earthquake Activity

City Distance Mag. Time & Date
Minimum magnitude displayed is 2.5.

Coastal Water Temperatures

Place Temperature

Nearby Weather Stations